NCAR-RAP Real-Time Weather Data

Output produced by METARs form (23 April 2018  23:15 UTC)
found at http://weather.rap.ucar.edu/surface/
 
KBWI 232254Z 18008G18KT 10SM FEW065 FEW100 BKN160 BKN250 17/06 A3036 RMK AO2 SLP280 T01720061
KBWI 232154Z 16009G18KT 10SM FEW060 BKN150 BKN250 18/06 A3036 RMK AO2 SLP279 T01830056
KBWI 232054Z 14011G18KT 10SM SCT060 BKN150 BKN250 19/07 A3035 RMK AO2 SLP276 T01940067 58021
KBWI 231954Z 12011KT 10SM SCT070 BKN150 BKN250 19/06 A3037 RMK AO2 SLP283 T01940061
KBWI 231854Z 11012G20KT 10SM FEW070 BKN150 BKN250 19/06 A3039 RMK AO2 SLP291 T01940056
KBWI 231754Z 11012G19KT 10SM FEW060 SCT150 BKN250 19/05 A3041 RMK AO2 SLP297 T01890050 10194 20117 58008
KBWI 231654Z 10010KT 10SM FEW055 SCT150 BKN200 19/04 A3042 RMK AO2 SLP299 T01890044
KBWI 231554Z 07008KT 10SM FEW050 FEW150 BKN200 17/07 A3043 RMK AO2 SLP303 T01720067
KBWI 231454Z 08006KT 10SM FEW150 BKN200 16/08 A3043 RMK AO2 SLP304 T01610078 50000
KBWI 231354Z 09004KT 10SM FEW080 FEW150 BKN200 14/06 A3043 RMK AO2 SLP305 T01440061
KBWI 231254Z 12004KT 10SM SCT080 BKN150 BKN250 13/06 A3044 RMK AO2 SLP307 T01330056
KBWI 231154Z 11004KT 10SM SCT080 SCT150 BKN200 12/06 A3043 RMK AO2 SLP304 T01170061 10117 20078 53012
KBWI 231054Z 00000KT 10SM SCT070 SCT150 BKN200 09/05 A3042 RMK AO2 SLP300 T00890050
KBWI 230954Z 00000KT 10SM FEW060 BKN085 BKN200 08/04 A3041 RMK AO2 SLP296 T00830044
KBWI 230854Z 00000KT 10SM BKN060 BKN085 10/04 A3040 RMK AO2 SLP292 T01000044 56004
KBWI 230754Z 00000KT 10SM BKN065 10/04 A3040 RMK AO2 SLP294 T01000044
KBWI 230654Z 00000KT 10SM BKN065 11/04 A3040 RMK AO2 SLP292 T01110044
KBWI 230554Z 00000KT 10SM BKN060 12/04 A3041 RMK AO2 SLP296 T01170039 10150 20106 50004
KBWI 230454Z 17003KT 10SM BKN065 12/03 A3041 RMK AO2 SLP296 T01220033 401890067
KBWI 230354Z 22004KT 10SM BKN060 12/03 A3040 RMK AO2 SLP294 T01170033
KBWI 230254Z 00000KT 10SM FEW065 BKN160 11/03 A3039 RMK AO2 SLP291 T01060028 51018
KBWI 230154Z 14005KT 10SM FEW100 FEW250 12/03 A3039 RMK AO2 SLP289 T01220028
KBWI 230054Z 11007KT 10SM FEW100 FEW250 13/02 A3037 RMK AO2 SLP282 T01280017
KBWI 222354Z 13003KT 10SM FEW100 FEW150 FEW250 15/01 A3034 RMK AO2 SLP273 T01500011 10189 20150 53001
KBWI 222254Z 14003KT 10SM FEW100 FEW150 SCT250 16/01 A3033 RMK AO2 SLP270 T01610006
KBWI 222154Z 13010KT 10SM FEW065 FEW100 SCT150 BKN250 17/03 A3034 RMK AO2 SLP272 T01670028
KBWI 222054Z 13008KT 10SM FEW065 FEW095 BKN150 BKN250 18/03 A3033 RMK AO2 SLP272 T01780033 56013
KBWI 221954Z 17007KT 10SM SCT065 SCT160 BKN250 18/02 A3034 RMK AO2 SLP273 T01780017
KBWI 221854Z 07007KT 10SM FEW065 BKN250 18/02 A3036 RMK AO2 SLP279 T01780017
KBWI 221754Z 08011KT 10SM BKN250 17/01 A3037 RMK AO2 SLP285 T01720006 10178 20100 58014
KBWI 221654Z 08008KT 10SM BKN250 16/M01 A3039 RMK AO2 SLP290 T01611006
KBWI 221554Z 09011KT 10SM BKN250 15/M01 A3040 RMK AO2 SLP295 T01501011
KBWI 221454Z 10012KT 10SM BKN250 14/M02 A3042 RMK AO2 SLP300 T01391017 50001
KBWI 221354Z 08012KT 10SM FEW120 BKN250 14/M01 A3042 RMK AO2 SLP300 T01391006
KBWI 221254Z 08005KT 10SM SCT110 BKN250 12/05 A3042 RMK AO2 SLP300 T01220050
KBWI 221154Z 12006KT 10SM SCT110 BKN140 BKN250 10/06 A3041 RMK AO2 SLP299 T01000056 10100 20067 51012
KBWI 221054Z 11004KT 10SM SCT120 BKN140 BKN250 08/04 A3041 RMK AO2 SLP296 T00780044
KBWI 220954Z 00000KT 10SM FEW120 SCT140 BKN250 08/03 A3039 RMK AO2 SLP290 T00830028
KBWI 220854Z 00000KT 10SM SCT120 BKN140 BKN250 07/03 A3038 RMK AO2 SLP287 T00670028 53001
KBWI 220754Z 00000KT 10SM FEW120 BKN140 OVC250 08/02 A3037 RMK AO2 SLP284 T00830022
KBWI 220654Z 00000KT 10SM BKN150 OVC250 08/02 A3037 RMK AO2 SLP282 T00830022
KBWI 220554Z 00000KT 10SM BKN150 BKN170 OVC250 09/02 A3037 RMK AO2 SLP285 T00890017 10122 20072 50000
KBWI 220454Z 00000KT 10SM SCT150 BKN170 BKN250 08/02 A3038 RMK AO2 SLP289 T00830017 401670000
KBWI 220354Z 00000KT 10SM FEW140 BKN170 OVC250 08/02 A3037 RMK AO2 SLP284 T00830017
KBWI 220254Z 00000KT 10SM SCT150 OVC250 08/01 A3037 RMK AO2 SLP286 T00830006 51010
KBWI 220154Z 00000KT 10SM SCT140 BKN250 10/M01 A3037 RMK AO2 SLP285 T01001006
KBWI 220054Z 00000KT 10SM FEW160 BKN250 11/M01 A3036 RMK AO2 SLP281 T01111006
KBWI 212354Z 15005KT 10SM FEW110 FEW170 BKN250 12/M01 A3034 RMK AO2 SLP276 T01221006 10167 20122 53004
KBWI 212254Z VRB03KT 10SM FEW120 BKN250 16/M03 A3033 RMK AO2 SLP272 T01561028
KBWI 212154Z 26005KT 10SM FEW160 BKN250 16/M02 A3033 RMK AO2 SLP271 T01561022
KBWI 212054Z 29005KT 10SM BKN250 16/M04 A3033 RMK AO2 SLP271 T01561039 56019
KBWI 211954Z 25005KT 10SM BKN250 16/M03 A3034 RMK AO2 SLP275 T01611028
KBWI 211854Z COR VRB04KT 10SM BKN250 16/M03 A3036 RMK AO2 SLP283 T01561033
KBWI 211754Z 10SM BKN250 14/M04 A3039 RMK AO2 SLP290 T01441039 10144 20044 57030
KBWI 211654Z VRB04KT 10SM BKN250 14/M03 A3041 RMK AO2 SLP299 T01391028
KBWI 211554Z 28011KT 10SM BKN250 12/M02 A3045 RMK AO2 SLP312 T01221022
KBWI 211454Z 10SM BKN250 11/M02 A3048 RMK AO2 SLP320 T01111022 58001
KBWI 211354Z 28004KT 10SM BKN250 09/M03 A3049 RMK AO2 SLP325 T00941028
KBWI 211254Z VRB04KT 10SM BKN250 08/M02 A3049 RMK AO2 SLP324 T00781017
KBWI 211154Z 29003KT 10SM BKN250 04/M01 A3048 RMK AO2 SLP321 T00391006 10061 20000 53010